createdAt,value
2018-09-28T00:01:39.034Z,10.17
2018-09-28T00:04:07.629Z,10.23
2018-09-28T00:06:36.213Z,10.07
2018-09-28T00:09:06.533Z,10.16
2018-09-28T00:11:35.098Z,10.15
2018-09-28T00:14:03.721Z,10.14
2018-09-28T00:16:32.290Z,10.01
2018-09-28T00:19:00.917Z,9.66
2018-09-28T00:21:29.528Z,9.45
2018-09-28T00:23:58.098Z,9.59
2018-09-28T00:26:26.657Z,9.63
2018-09-28T00:28:55.323Z,9.56
2018-09-28T00:31:23.854Z,9.51
2018-09-28T00:33:52.421Z,9.60
2018-09-28T00:36:20.958Z,9.70
2018-09-28T00:38:49.533Z,9.73
2018-09-28T00:41:18.074Z,9.66
2018-09-28T00:43:46.649Z,9.73
2018-09-28T00:46:15.195Z,9.71
2018-09-28T00:48:43.776Z,9.73
2018-09-28T00:51:12.345Z,9.72
2018-09-28T00:53:40.949Z,9.69
2018-09-28T00:56:09.487Z,9.71
2018-09-28T00:58:38.059Z,9.71
2018-09-28T01:01:06.665Z,9.67
2018-09-28T01:03:35.250Z,9.67
2018-09-28T01:06:03.805Z,9.60
2018-09-28T01:08:32.384Z,9.55
2018-09-28T01:11:00.921Z,9.55
2018-09-28T01:13:29.500Z,9.57
2018-09-28T01:15:58.039Z,9.45
2018-09-28T01:18:26.608Z,9.43
2018-09-28T01:20:55.173Z,9.45
2018-09-28T01:23:23.785Z,9.41
2018-09-28T01:25:52.376Z,9.47
2018-09-28T01:28:20.933Z,9.36
2018-09-28T01:30:49.460Z,9.44
2018-09-28T01:33:18.035Z,9.45
2018-09-28T01:35:46.577Z,9.40
2018-09-28T01:38:15.164Z,9.03
2018-09-28T01:40:43.711Z,8.93
2018-09-28T01:43:12.285Z,8.98
2018-09-28T01:45:40.839Z,9.09
2018-09-28T01:48:09.499Z,9.04
2018-09-28T01:50:38.030Z,9.07
2018-09-28T01:53:06.642Z,8.98
2018-09-28T01:55:35.181Z,8.96
2018-09-28T01:58:03.752Z,8.98
2018-09-28T02:00:32.313Z,8.96
2018-09-28T02:03:00.861Z,9.00
2018-09-28T02:05:29.431Z,9.03
2018-09-28T02:07:57.972Z,8.97
2018-09-28T02:10:26.536Z,8.94
2018-09-28T02:12:55.063Z,8.95
2018-09-28T02:15:23.642Z,8.94
2018-09-28T02:17:52.188Z,8.85
2018-09-28T02:20:20.790Z,8.70
2018-09-28T02:22:49.320Z,8.75
2018-09-28T02:25:17.909Z,8.69
2018-09-28T02:27:46.460Z,8.56
2018-09-28T02:30:15.110Z,8.54
2018-09-28T02:32:43.645Z,8.56
2018-09-28T02:35:12.197Z,8.46
2018-09-28T02:37:40.803Z,8.36
2018-09-28T02:40:09.397Z,8.34
2018-09-28T02:42:37.941Z,8.27
2018-09-28T02:45:06.552Z,8.34
2018-09-28T02:47:35.092Z,8.28
2018-09-28T02:50:03.677Z,8.32
2018-09-28T02:52:32.211Z,8.33
2018-09-28T02:55:00.778Z,8.40
2018-09-28T02:57:29.332Z,8.42
2018-09-28T02:59:57.892Z,8.40
2018-09-28T03:02:26.590Z,8.33
2018-09-28T03:04:55.182Z,8.37
2018-09-28T03:07:23.740Z,8.36
2018-09-28T03:09:52.318Z,8.31
2018-09-28T03:12:20.861Z,8.27
2018-09-28T03:14:49.420Z,8.28
2018-09-28T03:17:17.941Z,8.26
2018-09-28T03:19:46.500Z,8.23
2018-09-28T03:22:15.039Z,8.17
2018-09-28T03:24:43.600Z,8.07
2018-09-28T03:27:12.125Z,7.87
2018-09-28T03:29:40.677Z,7.82
2018-09-28T03:32:09.205Z,7.85
2018-09-28T03:34:37.775Z,7.89
2018-09-28T03:37:06.365Z,7.86
2018-09-28T03:39:34.964Z,7.87
2018-09-28T03:42:03.488Z,7.90
2018-09-28T03:44:32.030Z,7.99
2018-09-28T03:47:00.673Z,7.99
2018-09-28T03:49:29.218Z,7.96
2018-09-28T03:51:57.792Z,7.94
2018-09-28T03:54:26.322Z,7.97
2018-09-28T03:56:54.870Z,7.90
2018-09-28T03:59:23.416Z,7.90
2018-09-28T04:01:52.019Z,7.69
2018-09-28T04:04:20.550Z,7.67
2018-09-28T04:06:49.098Z,7.66
2018-09-28T04:09:17.645Z,7.72
2018-09-28T04:11:46.259Z,7.73
2018-09-28T04:14:14.781Z,7.72
2018-09-28T04:16:43.347Z,7.65
2018-09-28T04:19:11.891Z,7.71
2018-09-28T04:21:43.496Z,7.64
2018-09-28T04:24:12.021Z,7.73
2018-09-28T04:26:40.582Z,7.67
2018-09-28T04:29:09.112Z,7.67
2018-09-28T04:31:37.692Z,7.70
2018-09-28T04:34:06.247Z,7.66
2018-09-28T04:36:34.924Z,7.63
2018-09-28T04:39:04.047Z,7.72
2018-09-28T04:41:32.640Z,7.71
2018-09-28T04:44:01.164Z,7.56
2018-09-28T04:46:29.765Z,7.67
2018-09-28T04:48:58.320Z,7.66
2018-09-28T04:51:26.920Z,7.74
2018-09-28T04:53:55.457Z,7.71
2018-09-28T04:56:24.036Z,7.76
2018-09-28T04:58:52.619Z,7.82
2018-09-28T05:01:21.188Z,7.71
2018-09-28T05:03:49.725Z,7.75
2018-09-28T05:06:18.312Z,7.76
2018-09-28T05:08:46.853Z,7.80
2018-09-28T05:11:15.858Z,7.87
2018-09-28T05:13:44.380Z,7.70
2018-09-28T05:16:12.957Z,7.57
2018-09-28T05:18:41.520Z,7.72
2018-09-28T05:21:10.090Z,7.75
2018-09-28T05:23:38.637Z,7.66
2018-09-28T05:26:07.288Z,7.86
2018-09-28T05:28:35.821Z,7.92
2018-09-28T05:31:04.431Z,7.98
2018-09-28T05:33:32.990Z,8.07
2018-09-28T05:36:01.530Z,8.18
2018-09-28T05:38:30.086Z,8.05
2018-09-28T05:40:58.652Z,7.46
2018-09-28T05:43:27.248Z,7.59
2018-09-28T05:45:55.892Z,7.58
2018-09-28T05:48:24.522Z,7.83
2018-09-28T05:50:53.130Z,8.06
2018-09-28T05:53:21.791Z,8.26
2018-09-28T05:55:50.444Z,8.30
2018-09-28T05:58:24.364Z,8.43
2018-09-28T06:00:58.285Z,8.35
2018-09-28T06:03:27.056Z,8.47
2018-09-28T06:06:02.601Z,8.25
2018-09-28T06:08:32.330Z,8.51
2018-09-28T06:11:00.912Z,8.68
2018-09-28T06:13:29.567Z,8.75
2018-09-28T06:15:58.800Z,8.92
2018-09-28T06:18:27.424Z,9.06
2018-09-28T06:20:56.053Z,9.49
2018-09-28T06:23:24.685Z,9.77
2018-09-28T06:25:53.277Z,10.52
2018-09-28T06:28:21.852Z,12.00
2018-09-28T06:30:50.404Z,14.27
2018-09-28T06:33:19.010Z,16.17
2018-09-28T06:35:48.095Z,17.98
2018-09-28T06:38:16.672Z,19.15
2018-09-28T06:40:45.241Z,20.46
2018-09-28T06:43:13.857Z,21.83
2018-09-28T06:45:42.429Z,23.28
2018-09-28T06:48:11.058Z,24.34
2018-09-28T06:50:39.629Z,24.94
2018-09-28T06:53:08.260Z,25.60
2018-09-28T06:55:36.805Z,26.10
2018-09-28T06:58:05.436Z,26.47
2018-09-28T07:00:34.038Z,27.63
2018-09-28T07:03:02.653Z,26.89
2018-09-28T07:05:31.206Z,25.96
2018-09-28T07:07:59.810Z,25.78
2018-09-28T07:10:28.494Z,24.29
2018-09-28T07:12:57.089Z,25.89
2018-09-28T07:15:25.637Z,26.22
2018-09-28T07:17:54.240Z,24.06
2018-09-28T07:20:22.811Z,22.45
2018-09-28T07:22:51.413Z,23.43
2018-09-28T07:25:19.980Z,26.90
2018-09-28T07:27:48.563Z,28.05
2018-09-28T07:30:17.159Z,28.27
2018-09-28T07:32:45.774Z,28.45
2018-09-28T07:35:14.370Z,30.07
2018-09-28T07:37:42.982Z,27.71
2018-09-28T07:40:11.569Z,27.28
2018-09-28T07:42:40.159Z,27.36
2018-09-28T07:45:08.779Z,26.47
2018-09-28T07:47:37.333Z,26.68
2018-09-28T07:50:05.953Z,27.54
2018-09-28T07:52:34.509Z,27.66
2018-09-28T07:55:03.097Z,28.72
2018-09-28T07:57:31.686Z,29.61
2018-09-28T08:00:00.321Z,30.97
2018-09-28T08:02:28.908Z,30.85
2018-09-28T08:04:57.553Z,31.49
2018-09-28T08:07:26.138Z,32.79
2018-09-28T08:09:54.754Z,34.07
2018-09-28T08:12:23.320Z,33.69
2018-09-28T08:14:51.908Z,33.02
2018-09-28T08:17:20.501Z,32.32
2018-09-28T08:19:49.130Z,32.47
2018-09-28T08:22:17.782Z,33.96
2018-09-28T08:24:46.421Z,33.64
2018-09-28T08:27:14.993Z,32.60
2018-09-28T08:29:43.634Z,33.46
2018-09-28T08:32:12.232Z,34.61
2018-09-28T08:34:40.863Z,34.47
2018-09-28T08:37:09.459Z,33.81
2018-09-28T08:39:38.072Z,35.09
2018-09-28T08:42:07.227Z,36.10
2018-09-28T08:44:35.855Z,37.28
2018-09-28T08:47:04.476Z,35.38
2018-09-28T08:49:33.113Z,34.15
2018-09-28T08:52:01.680Z,33.72
2018-09-28T08:54:30.293Z,35.50
2018-09-28T08:56:58.881Z,35.93
2018-09-28T08:59:27.493Z,36.52
2018-09-28T09:01:56.071Z,36.27
2018-09-28T09:04:24.712Z,36.16
2018-09-28T09:06:53.252Z,35.40
2018-09-28T09:09:22.090Z,34.10
2018-09-28T09:11:51.575Z,36.19
2018-09-28T09:14:20.196Z,36.67
2018-09-28T09:16:49.056Z,38.24
2018-09-28T09:19:17.692Z,36.66
2018-09-28T09:21:46.290Z,38.47
2018-09-28T09:24:16.843Z,39.55
2018-09-28T09:26:45.453Z,38.93
2018-09-28T09:29:14.005Z,38.08
2018-09-28T09:31:42.581Z,37.76
2018-09-28T09:34:32.835Z,36.79
2018-09-28T09:37:15.065Z,36.03
2018-09-28T09:43:15.180Z,37.04
2018-09-28T09:45:43.883Z,35.55
2018-09-28T09:48:12.427Z,35.23
2018-09-28T09:50:44.139Z,36.23
2018-09-28T09:53:12.689Z,34.93
2018-09-28T09:55:41.285Z,35.44
2018-09-28T09:58:09.867Z,35.89
2018-09-28T10:00:43.829Z,35.25
2018-09-28T10:03:17.564Z,33.93
2018-09-28T10:05:46.144Z,33.70
2018-09-28T10:08:14.705Z,34.70
2018-09-28T10:10:43.276Z,34.42
2018-09-28T10:13:11.831Z,34.83
2018-09-28T10:15:40.406Z,35.20
2018-09-28T10:18:08.941Z,35.70
2018-09-28T10:20:37.541Z,36.17
2018-09-28T10:23:06.492Z,36.14
2018-09-28T10:25:35.054Z,35.64
2018-09-28T10:28:03.597Z,34.49
2018-09-28T10:30:32.180Z,33.27
2018-09-28T10:33:00.729Z,33.42
2018-09-28T10:35:29.312Z,33.18
2018-09-28T10:37:57.940Z,33.26
2018-09-28T10:40:26.656Z,34.30
2018-09-28T10:42:55.087Z,34.13
2018-09-28T10:45:23.721Z,33.46
2018-09-28T10:47:52.208Z,32.93
2018-09-28T10:50:20.770Z,33.66
2018-09-28T10:54:13.693Z,33.32
2018-09-28T10:56:42.292Z,32.72
2018-09-28T10:59:10.832Z,32.10
2018-09-28T11:01:39.448Z,32.27
2018-09-28T11:04:08.062Z,32.43
2018-09-28T11:06:36.704Z,32.95
2018-09-28T11:09:08.218Z,34.57
2018-09-28T11:11:36.832Z,33.99
2018-09-28T11:14:05.408Z,32.97
2018-09-28T11:16:33.997Z,33.60
2018-09-28T11:19:02.619Z,33.99
2018-09-28T11:21:31.226Z,34.35
2018-09-28T11:23:59.749Z,32.87
2018-09-28T11:26:28.636Z,31.69
2018-09-28T11:28:57.239Z,32.05
2018-09-28T11:31:25.821Z,32.27
2018-09-28T11:33:54.372Z,32.04
2018-09-28T11:36:22.961Z,31.75
2018-09-28T11:38:51.513Z,31.35
2018-09-28T11:41:20.102Z,31.91
2018-09-28T11:43:48.644Z,32.05
2018-09-28T11:46:17.244Z,31.42
2018-09-28T11:48:45.812Z,31.81
2018-09-28T11:51:14.383Z,32.55
2018-09-28T11:53:42.983Z,32.72
2018-09-28T11:56:11.560Z,33.20
2018-09-28T11:58:40.148Z,32.30
2018-09-28T12:01:09.168Z,31.90
2018-09-28T12:03:37.912Z,31.92
2018-09-28T12:06:06.544Z,31.28
2018-09-28T12:08:35.144Z,30.58
2018-09-28T12:11:04.324Z,30.44
2018-09-28T12:13:32.873Z,28.82
2018-09-28T12:16:01.454Z,27.91
2018-09-28T12:18:30.180Z,27.93
2018-09-28T12:20:58.721Z,28.16
2018-09-28T12:23:27.344Z,28.29
2018-09-28T12:25:55.934Z,28.06
2018-09-28T12:28:24.552Z,27.80
2018-09-28T12:30:53.139Z,27.50
2018-09-28T12:33:21.948Z,26.52
2018-09-28T12:35:50.493Z,26.21
2018-09-28T12:38:19.111Z,26.58
2018-09-28T12:40:47.724Z,26.16
2018-09-28T12:43:16.394Z,25.58
2018-09-28T12:45:45.209Z,25.51
2018-09-28T12:48:13.727Z,25.77
2018-09-28T12:50:42.354Z,25.82
2018-09-28T12:53:10.922Z,26.38
2018-09-28T12:55:39.544Z,25.93
2018-09-28T12:58:08.157Z,25.62
2018-09-28T13:00:36.755Z,25.87
2018-09-28T13:03:05.328Z,26.10
2018-09-28T13:05:33.901Z,25.99
2018-09-28T13:08:02.512Z,26.02
2018-09-28T13:10:31.090Z,25.84
2018-09-28T13:12:59.701Z,26.22
2018-09-28T13:15:28.289Z,26.47
2018-09-28T13:17:56.896Z,26.54
2018-09-28T13:20:25.592Z,26.24
2018-09-28T13:22:54.179Z,26.63
2018-09-28T13:25:22.759Z,26.93
2018-09-28T13:27:51.362Z,26.99
2018-09-28T13:30:20.003Z,26.92
2018-09-28T13:32:48.651Z,27.21
2018-09-28T13:35:17.213Z,27.39
2018-09-28T13:37:45.813Z,27.44
2018-09-28T13:40:14.408Z,27.20
2018-09-28T13:42:43.097Z,27.40
2018-09-28T13:45:11.656Z,26.92
2018-09-28T13:47:40.272Z,26.87
2018-09-28T13:50:09.009Z,26.73
2018-09-28T13:52:37.631Z,26.84
2018-09-28T13:55:07.051Z,26.71
2018-09-28T13:57:35.647Z,26.77
2018-09-28T14:00:04.325Z,27.22
2018-09-28T14:02:32.966Z,27.27
2018-09-28T14:05:01.634Z,26.81
2018-09-28T14:07:30.179Z,26.59
2018-09-28T14:09:58.815Z,26.39
2018-09-28T14:12:27.537Z,25.99
2018-09-28T14:14:56.099Z,26.47
2018-09-28T14:17:24.676Z,26.66
2018-09-28T14:19:53.312Z,26.76
2018-09-28T14:22:21.968Z,26.70
2018-09-28T14:24:50.640Z,26.36
2018-09-28T14:27:19.182Z,26.28
2018-09-28T14:29:47.838Z,27.12
2018-09-28T14:32:16.492Z,27.75
2018-09-28T14:34:45.119Z,28.30
2018-09-28T14:37:13.738Z,28.70
2018-09-28T14:39:42.411Z,28.43
2018-09-28T14:42:11.023Z,27.78
2018-09-28T14:44:39.667Z,27.25
2018-09-28T14:47:08.256Z,26.78
2018-09-28T14:49:36.891Z,26.27
2018-09-28T14:52:05.497Z,25.98
2018-09-28T14:54:34.216Z,25.58
2018-09-28T14:57:02.690Z,25.22
2018-09-28T14:59:31.284Z,24.64
2018-09-28T15:01:59.845Z,24.35
2018-09-28T15:04:28.465Z,24.25
2018-09-28T15:06:57.081Z,23.96
2018-09-28T15:09:25.675Z,23.82
2018-09-28T15:11:54.260Z,23.77
2018-09-28T15:14:22.919Z,23.65
2018-09-28T15:16:51.494Z,23.56
2018-09-28T15:19:20.095Z,23.24
2018-09-28T15:21:48.692Z,23.73
2018-09-28T15:24:17.314Z,24.09
2018-09-28T15:26:45.887Z,24.39
2018-09-28T15:29:14.509Z,24.87
2018-09-28T15:31:43.117Z,25.46
2018-09-28T15:34:11.738Z,25.93
2018-09-28T15:36:40.344Z,25.96
2018-09-28T15:39:11.109Z,25.74
2018-09-28T15:41:39.697Z,25.58
2018-09-28T15:44:08.428Z,25.30
2018-09-28T15:46:37.133Z,24.89
2018-09-28T15:49:05.786Z,24.39
2018-09-28T15:51:34.387Z,23.98
2018-09-28T15:54:03.679Z,23.70
2018-09-28T15:56:32.267Z,23.51
2018-09-28T15:59:00.864Z,23.24
2018-09-28T16:01:29.475Z,22.90
2018-09-28T16:03:58.055Z,22.77
2018-09-28T16:06:26.689Z,22.76
2018-09-28T16:08:55.265Z,22.72
2018-09-28T16:11:23.903Z,22.55
2018-09-28T16:13:52.479Z,22.45
2018-09-28T16:16:21.107Z,22.28
2018-09-28T16:18:49.719Z,22.10
2018-09-28T16:21:18.294Z,22.00
2018-09-28T16:23:46.904Z,21.94
2018-09-28T16:26:15.576Z,22.00
2018-09-28T16:30:08.538Z,22.03
2018-09-28T16:32:42.171Z,21.90
2018-09-28T16:35:10.768Z,21.78
2018-09-28T16:37:39.344Z,21.48
2018-09-28T16:40:08.133Z,21.34
2018-09-28T16:42:37.029Z,21.16
2018-09-28T16:45:05.613Z,20.97
2018-09-28T16:47:34.233Z,20.72
2018-09-28T16:50:03.066Z,20.60
2018-09-28T16:52:31.652Z,20.49
2018-09-28T16:55:00.225Z,20.26
2018-09-28T16:57:28.879Z,20.06
2018-09-28T16:59:57.504Z,19.87
2018-09-28T17:02:26.368Z,19.67
2018-09-28T17:04:54.948Z,19.57
2018-09-28T17:07:23.598Z,19.43
2018-09-28T17:09:52.179Z,19.25
2018-09-28T17:12:20.756Z,19.09
2018-09-28T17:14:49.330Z,18.98
2018-09-28T17:17:17.947Z,18.93
2018-09-28T17:19:46.533Z,18.87
2018-09-28T17:22:15.160Z,18.69
2018-09-28T17:24:43.722Z,18.58
2018-09-28T17:27:12.344Z,18.41
2018-09-28T17:29:40.900Z,18.40
2018-09-28T17:32:09.563Z,18.27
2018-09-28T17:34:38.104Z,18.22
2018-09-28T17:37:06.766Z,18.17
2018-09-28T17:39:35.401Z,18.05
2018-09-28T17:42:03.988Z,17.90
2018-09-28T17:44:32.573Z,17.84
2018-09-28T17:47:01.183Z,17.74
2018-09-28T17:49:29.707Z,17.63
2018-09-28T17:51:58.317Z,17.39
2018-09-28T17:54:26.877Z,17.21
2018-09-28T17:56:55.468Z,17.07
2018-09-28T17:59:24.021Z,16.90
2018-09-28T18:01:52.603Z,16.74
2018-09-28T18:04:21.149Z,16.76
2018-09-28T18:06:49.720Z,16.75
2018-09-28T18:09:18.254Z,16.65
2018-09-28T18:11:46.836Z,16.64
2018-09-28T18:14:15.421Z,16.52
2018-09-28T18:16:43.985Z,16.51
2018-09-28T18:19:12.568Z,16.43
2018-09-28T18:21:41.140Z,16.38
2018-09-28T18:24:09.690Z,16.33
2018-09-28T18:26:38.288Z,16.25
2018-09-28T18:29:06.913Z,16.18
2018-09-28T18:31:35.507Z,16.13
2018-09-28T18:34:04.122Z,16.10
2018-09-28T18:36:32.680Z,16.08
2018-09-28T18:39:01.310Z,16.07
2018-09-28T18:41:29.921Z,16.02
2018-09-28T18:43:58.526Z,16.02
2018-09-28T18:46:27.117Z,16.06
2018-09-28T18:48:55.733Z,15.93
2018-09-28T18:51:24.304Z,15.92
2018-09-28T18:53:52.904Z,15.88
2018-09-28T18:56:21.500Z,15.82
2018-09-28T18:58:50.162Z,15.78
2018-09-28T19:01:18.690Z,15.74
2018-09-28T19:03:47.326Z,15.74
2018-09-28T19:06:15.921Z,15.72
2018-09-28T19:08:44.459Z,15.67
2018-09-28T19:11:13.013Z,15.71
2018-09-28T19:13:41.640Z,15.60
2018-09-28T19:16:10.235Z,15.62
2018-09-28T19:18:38.853Z,15.68
2018-09-28T19:21:07.449Z,15.62
2018-09-28T19:23:36.055Z,15.51
2018-09-28T19:26:04.637Z,15.59
2018-09-28T19:28:33.293Z,15.54
2018-09-28T19:31:01.871Z,15.63
2018-09-28T19:33:30.469Z,15.60
2018-09-28T19:35:59.044Z,15.50
2018-09-28T19:38:27.633Z,15.48
2018-09-28T19:40:57.899Z,15.55
2018-09-28T19:43:26.515Z,15.65
2018-09-28T19:45:55.089Z,15.46
2018-09-28T19:48:23.661Z,15.53
2018-09-28T19:50:52.218Z,15.48
2018-09-28T19:53:20.861Z,15.42
2018-09-28T19:55:49.849Z,15.35
2018-09-28T19:58:18.632Z,15.31
2018-09-28T20:00:47.216Z,15.40
2018-09-28T20:03:15.832Z,15.45
2018-09-28T20:05:44.412Z,15.43
2018-09-28T20:08:13.030Z,15.51
2018-09-28T20:10:41.627Z,15.48
2018-09-28T20:13:10.233Z,15.37
2018-09-28T20:15:38.873Z,15.36
2018-09-28T20:18:07.520Z,15.34
2018-09-28T20:20:36.100Z,15.27
2018-09-28T20:23:04.687Z,15.24
2018-09-28T20:26:57.700Z,15.06
2018-09-28T20:29:26.319Z,14.96
2018-09-28T20:31:54.921Z,14.93
2018-09-28T20:34:23.513Z,14.87
2018-09-28T20:36:52.121Z,14.93
2018-09-28T20:39:20.708Z,14.95
2018-09-28T20:41:49.299Z,14.78
2018-09-28T20:44:17.876Z,14.74
2018-09-28T20:46:46.454Z,14.79
2018-09-28T20:49:15.070Z,14.78
2018-09-28T20:51:43.641Z,14.82
2018-09-28T20:54:12.280Z,14.83
2018-09-28T20:56:40.844Z,14.72
2018-09-28T20:59:09.526Z,14.66
2018-09-28T21:01:38.131Z,14.64
2018-09-28T21:04:06.856Z,14.55
2018-09-28T21:06:35.470Z,14.60
2018-09-28T21:09:04.788Z,14.63
2018-09-28T21:11:33.376Z,14.68
2018-09-28T21:14:01.990Z,14.65
2018-09-28T21:16:30.620Z,14.56
2018-09-28T21:18:59.231Z,14.59
2018-09-28T21:21:27.905Z,14.62
2018-09-28T21:23:56.542Z,14.64
2018-09-28T21:26:25.216Z,14.68
2018-09-28T21:28:53.897Z,14.82
2018-09-28T21:31:22.453Z,14.87
2018-09-28T21:33:51.010Z,14.76
2018-09-28T21:36:19.665Z,14.71
2018-09-28T21:38:48.260Z,14.79
2018-09-28T21:41:16.914Z,14.63
2018-09-28T21:43:45.506Z,14.53
2018-09-28T21:46:14.124Z,14.51
2018-09-28T21:48:42.719Z,14.50
2018-09-28T21:51:11.333Z,14.37
2018-09-28T21:53:39.908Z,14.27
2018-09-28T21:56:08.541Z,14.25
2018-09-28T21:58:37.237Z,14.11
2018-09-28T22:01:05.853Z,14.05
2018-09-28T22:03:34.420Z,14.01
2018-09-28T22:06:03.001Z,13.87
2018-09-28T22:08:31.598Z,13.83
2018-09-28T22:11:00.215Z,13.83
2018-09-28T22:13:28.798Z,13.75
2018-09-28T22:15:57.383Z,13.84
2018-09-28T22:18:25.987Z,13.72
2018-09-28T22:20:54.549Z,13.64
2018-09-28T22:23:23.209Z,13.66
2018-09-28T22:25:51.844Z,13.63
2018-09-28T22:28:20.421Z,13.53
2018-09-28T22:30:49.093Z,13.52
2018-09-28T22:33:17.662Z,13.52
2018-09-28T22:35:46.272Z,13.50
2018-09-28T22:38:14.840Z,13.42
2018-09-28T22:40:43.526Z,13.49
2018-09-28T22:43:12.141Z,13.36
2018-09-28T22:45:40.745Z,13.31
2018-09-28T22:48:09.325Z,13.38
2018-09-28T22:50:37.948Z,13.38
2018-09-28T22:53:06.677Z,13.34
2018-09-28T22:55:35.276Z,13.31
2018-09-28T22:58:03.865Z,13.34
2018-09-28T23:00:32.477Z,13.43
2018-09-28T23:03:01.078Z,13.37
2018-09-28T23:05:29.681Z,13.35
2018-09-28T23:07:58.537Z,13.28
2018-09-28T23:10:27.121Z,13.28
2018-09-28T23:12:55.705Z,13.24
2018-09-28T23:15:24.285Z,13.21
2018-09-28T23:17:52.867Z,13.27
2018-09-28T23:20:21.452Z,13.25
2018-09-28T23:22:50.070Z,13.18
2018-09-28T23:25:18.703Z,13.17
2018-09-28T23:27:47.385Z,13.23
2018-09-28T23:30:15.939Z,13.19
2018-09-28T23:32:44.496Z,13.24
2018-09-28T23:35:13.036Z,13.27
2018-09-28T23:37:41.608Z,13.16
2018-09-28T23:40:10.156Z,13.06
2018-09-28T23:42:38.797Z,12.91
2018-09-28T23:45:07.370Z,12.89
2018-09-28T23:47:36.027Z,12.81
2018-09-28T23:50:04.568Z,12.71
2018-09-28T23:52:33.149Z,12.69
2018-09-28T23:55:01.739Z,12.65
2018-09-28T23:57:30.317Z,12.60
2018-09-28T23:59:58.890Z,12.55
